Time,TemperatureF,DewpointF,PressureIn,WindDirection,WindDirectionDegrees,WindSpeedMPH,WindSpeedGustMPH,Humidity,HourlyPrecipIn,Conditions,Clouds,dailyrainin,SoftwareType,DateUTC
2013-05-20 00:05:00,64.8,64.2,29.87,East,90,2.2,-999.0,98,-99.99,,,0.00,Acu-Link.com,2013-05-20 04:05:00,
2013-05-20 00:20:00,64.9,64.3,29.87,East,90,1.7,-999.0,98,-99.99,,,0.00,Acu-Link.com,2013-05-20 04:20:00,
2013-05-20 00:35:00,64.0,63.4,29.87,ESE,112,0.0,-999.0,98,-99.99,,,0.00,Acu-Link.com,2013-05-20 04:35:00,
2013-05-20 00:51:00,63.7,63.1,29.88,NNE,22,0.0,-999.0,98,-99.99,,,0.00,Acu-Link.com,2013-05-20 04:51:00,
2013-05-20 01:06:00,63.3,62.7,29.87,West,270,0.0,-999.0,98,-99.99,,,0.00,Acu-Link.com,2013-05-20 05:06:00,
2013-05-20 01:21:00,63.1,62.5,29.87,NNW,337,0.0,-999.0,98,-99.99,,,0.00,Acu-Link.com,2013-05-20 05:21:00,
2013-05-20 01:37:00,62.8,62.2,29.87,West,270,0.0,-999.0,98,-99.99,,,0.00,Acu-Link.com,2013-05-20 05:37:00,
2013-05-20 01:52:00,62.2,61.6,29.88,West,270,0.0,-999.0,98,-99.99,,,0.00,Acu-Link.com,2013-05-20 05:52:00,
2013-05-20 02:07:00,61.9,61.3,29.87,West,270,0.0,-999.0,98,-99.99,,,0.00,Acu-Link.com,2013-05-20 06:07:00,
2013-05-20 02:22:00,61.5,60.9,29.88,West,270,0.0,-999.0,98,-99.99,,,0.00,Acu-Link.com,2013-05-20 06:22:00,
2013-05-20 02:38:00,61.9,61.3,29.87,West,270,1.1,-999.0,98,-99.99,,,0.00,Acu-Link.com,2013-05-20 06:38:00,
2013-05-20 02:53:00,62.1,61.5,29.88,NNE,22,0.0,-999.0,98,-99.99,,,0.00,Acu-Link.com,2013-05-20 06:53:00,
2013-05-20 03:08:00,62.8,62.2,29.88,NNE,22,0.0,-999.0,98,-99.99,,,0.00,Acu-Link.com,2013-05-20 07:08:00,
2013-05-20 03:23:00,62.8,62.2,29.88,NNW,337,0.0,-999.0,98,-99.99,,,0.00,Acu-Link.com,2013-05-20 07:23:00,
2013-05-20 03:38:00,63.1,62.5,29.88,West,270,0.0,-999.0,98,-99.99,,,0.00,Acu-Link.com,2013-05-20 07:38:00,
2013-05-20 03:53:00,63.1,62.5,29.88,WNW,292,0.0,-999.0,98,-99.99,,,0.00,Acu-Link.com,2013-05-20 07:53:00,
2013-05-20 04:09:00,63.5,62.9,29.88,NW,315,0.0,-999.0,98,-99.99,,,0.00,Acu-Link.com,2013-05-20 08:09:00,
2013-05-20 04:25:00,63.5,62.9,29.89,West,270,0.0,-999.0,98,-99.99,,,0.00,Acu-Link.com,2013-05-20 08:25:00,
2013-05-20 04:40:00,63.5,62.9,29.89,ENE,67,0.0,-999.0,98,-99.99,,,0.00,Acu-Link.com,2013-05-20 08:40:00,
2013-05-20 04:55:00,63.7,63.1,29.88,SSE,157,0.0,-999.0,98,-99.99,,,0.00,Acu-Link.com,2013-05-20 08:55:00,
2013-05-20 05:10:00,63.5,62.9,29.87,NNE,22,0.0,-999.0,98,-99.99,,,0.00,Acu-Link.com,2013-05-20 09:10:00,
2013-05-20 05:26:00,63.5,62.9,29.87,West,270,0.0,-999.0,98,-99.99,,,0.00,Acu-Link.com,2013-05-20 09:26:00,
2013-05-20 05:41:00,63.3,62.7,29.86,West,270,1.1,-999.0,98,-99.99,,,0.00,Acu-Link.com,2013-05-20 09:41:00,
2013-05-20 05:56:00,62.6,62.0,29.87,West,270,0.0,-999.0,98,-99.99,,,0.00,Acu-Link.com,2013-05-20 09:56:00,
2013-05-20 06:11:00,62.2,61.6,29.86,ESE,112,0.0,-999.0,98,-99.99,,,0.00,Acu-Link.com,2013-05-20 10:11:00,
2013-05-20 06:27:00,62.2,61.6,29.87,NNE,22,0.0,-999.0,98,-99.99,,,0.00,Acu-Link.com,2013-05-20 10:27:00,
2013-05-20 06:42:00,62.2,61.6,29.88,ESE,112,0.0,-999.0,98,-99.99,,,0.00,Acu-Link.com,2013-05-20 10:42:00,
2013-05-20 06:57:00,62.4,61.8,29.89,ESE,112,0.0,-999.0,98,-99.99,,,0.00,Acu-Link.com,2013-05-20 10:57:00,
2013-05-20 07:12:00,62.4,61.8,29.89,ESE,112,1.7,-999.0,98,-99.99,,,0.00,Acu-Link.com,2013-05-20 11:12:00,
2013-05-20 07:28:00,62.8,62.2,29.90,ESE,112,0.0,-999.0,98,-99.99,,,0.00,Acu-Link.com,2013-05-20 11:28:00,
2013-05-20 07:43:00,63.5,62.9,29.91,South,180,0.0,-999.0,98,-99.99,,,0.00,Acu-Link.com,2013-05-20 11:43:00,
2013-05-20 07:58:00,64.4,63.8,29.91,West,270,0.0,-999.0,98,-99.99,,,0.00,Acu-Link.com,2013-05-20 11:58:00,
2013-05-20 08:14:00,65.7,65.1,29.90,South,180,0.0,-999.0,98,-99.99,,,0.00,Acu-Link.com,2013-05-20 12:14:00,
2013-05-20 08:29:00,66.9,66.3,29.91,ESE,112,3.7,-999.0,98,-99.99,,,0.00,Acu-Link.com,2013-05-20 12:29:00,
2013-05-20 08:44:00,68.4,67.8,29.91,SE,135,1.7,-999.0,98,-99.99,,,0.00,Acu-Link.com,2013-05-20 12:44:00,
2013-05-20 08:59:00,69.4,68.5,29.92,WSW,247,0.0,-999.0,97,-99.99,,,0.00,Acu-Link.com,2013-05-20 12:59:00,
2013-05-20 09:14:00,69.8,68.3,29.93,SW,225,1.1,-999.0,95,-99.99,,,0.00,Acu-Link.com,2013-05-20 13:14:00,
2013-05-20 09:30:00,70.7,68.6,29.92,SSW,202,1.1,-999.0,93,-99.99,,,0.00,Acu-Link.com,2013-05-20 13:30:00,
2013-05-20 09:45:00,70.0,68.2,29.92,SSW,202,3.2,-999.0,94,-99.99,,,0.00,Acu-Link.com,2013-05-20 13:45:00,
2013-05-20 10:00:00,68.9,67.4,29.93,WNW,292,1.1,-999.0,95,-99.99,,,0.00,Acu-Link.com,2013-05-20 14:00:00,
2013-05-20 10:16:00,71.1,68.7,29.93,NNE,22,2.7,-999.0,92,-99.99,,,0.00,Acu-Link.com,2013-05-20 14:16:00,
2013-05-20 10:31:00,70.3,67.2,29.93,SE,135,2.2,-999.0,90,-99.99,,,0.00,Acu-Link.com,2013-05-20 14:31:00,
2013-05-20 10:46:00,74.1,69.3,29.93,ENE,67,6.3,-999.0,85,-99.99,,,0.00,Acu-Link.com,2013-05-20 14:46:00,
2013-05-20 11:02:00,74.1,68.9,29.93,ESE,112,2.7,-999.0,84,-99.99,,,0.00,Acu-Link.com,2013-05-20 15:02:00,
2013-05-20 11:17:00,74.7,68.1,29.92,South,180,1.1,-999.0,80,-99.99,,,0.00,Acu-Link.com,2013-05-20 15:17:00,
2013-05-20 11:32:00,73.9,68.0,29.91,South,180,4.7,-999.0,82,-99.99,,,0.00,Acu-Link.com,2013-05-20 15:32:00,
2013-05-20 11:47:00,74.5,67.5,29.92,ENE,67,2.2,-999.0,79,-99.99,,,0.00,Acu-Link.com,2013-05-20 15:47:00,
2013-05-20 12:03:00,76.3,68.5,29.92,West,270,3.2,-999.0,77,-99.99,,,0.00,Acu-Link.com,2013-05-20 16:03:00,
2013-05-20 12:18:00,78.3,69.3,29.91,ENE,67,2.2,-999.0,74,-99.99,,,0.00,Acu-Link.com,2013-05-20 16:18:00,
2013-05-20 12:33:00,78.6,70.0,29.90,South,180,2.7,-999.0,75,-99.99,,,0.00,Acu-Link.com,2013-05-20 16:33:00,
2013-05-20 12:48:00,80.6,70.7,29.89,NNE,22,1.7,-999.0,72,-99.99,,,0.00,Acu-Link.com,2013-05-20 16:48:00,
2013-05-20 13:03:00,80.1,71.0,29.89,South,180,3.7,-999.0,74,-99.99,,,0.00,Acu-Link.com,2013-05-20 17:03:00,
2013-05-20 13:19:00,81.5,70.3,29.88,East,90,4.7,-999.0,69,-99.99,,,0.00,Acu-Link.com,2013-05-20 17:19:00,
2013-05-20 13:34:00,83.5,72.2,29.89,East,90,4.7,-999.0,69,-99.99,,,0.00,Acu-Link.com,2013-05-20 17:34:00,
2013-05-20 13:49:00,82.8,72.0,29.88,South,180,4.2,-999.0,70,-99.99,,,0.00,Acu-Link.com,2013-05-20 17:49:00,
2013-05-20 14:04:00,82.6,70.5,29.88,ESE,112,4.7,-999.0,67,-99.99,,,0.00,Acu-Link.com,2013-05-20 18:04:00,
2013-05-20 14:19:00,81.3,69.7,29.87,NE,45,6.3,-999.0,68,-99.99,,,0.00,Acu-Link.com,2013-05-20 18:19:00,
2013-05-20 14:35:00,82.4,70.3,29.87,ESE,112,6.3,-999.0,67,-99.99,,,0.00,Acu-Link.com,2013-05-20 18:35:00,
2013-05-20 14:50:00,84.2,70.7,29.86,East,90,8.3,-999.0,64,-99.99,,,0.00,Acu-Link.com,2013-05-20 18:50:00,
2013-05-20 15:05:00,82.6,70.1,29.86,WNW,292,1.7,-999.0,66,-99.99,,,0.00,Acu-Link.com,2013-05-20 19:05:00,
2013-05-20 15:20:00,82.4,69.9,29.85,ENE,67,3.2,-999.0,66,-99.99,,,0.00,Acu-Link.com,2013-05-20 19:20:00,
2013-05-20 15:35:00,84.2,72.0,29.83,ESE,112,5.8,-999.0,67,-99.99,,,0.00,Acu-Link.com,2013-05-20 19:35:00,
2013-05-20 15:51:00,82.2,69.7,29.85,South,180,4.2,-999.0,66,-99.99,,,0.00,Acu-Link.com,2013-05-20 19:51:00,
2013-05-20 16:06:00,83.3,70.7,29.84,South,180,1.7,-999.0,66,-99.99,,,0.00,Acu-Link.com,2013-05-20 20:06:00,
2013-05-20 16:21:00,84.7,70.7,29.84,ENE,67,3.2,-999.0,63,-99.99,,,0.00,Acu-Link.com,2013-05-20 20:21:00,
2013-05-20 16:37:00,86.0,71.9,29.84,West,270,3.2,-999.0,63,-99.99,,,0.00,Acu-Link.com,2013-05-20 20:37:00,
2013-05-20 16:52:00,85.3,70.3,29.83,SE,135,5.3,-999.0,61,-99.99,,,0.00,Acu-Link.com,2013-05-20 20:52:00,
2013-05-20 17:07:00,84.4,71.3,29.83,ESE,112,2.7,-999.0,65,-99.99,,,0.00,Acu-Link.com,2013-05-20 21:07:00,
2013-05-20 17:23:00,84.2,72.5,29.84,West,270,4.2,-999.0,68,-99.99,,,0.00,Acu-Link.com,2013-05-20 21:23:00,
2013-05-20 17:38:00,84.2,72.0,29.83,WSW,247,1.1,-999.0,67,-99.99,,,0.00,Acu-Link.com,2013-05-20 21:38:00,
2013-05-20 17:53:00,83.3,71.6,29.84,West,270,1.7,-999.0,68,-99.99,,,0.00,Acu-Link.com,2013-05-20 21:53:00,
2013-05-20 18:08:00,81.0,71.5,29.83,West,270,1.7,-999.0,73,-99.99,,,0.00,Acu-Link.com,2013-05-20 22:08:00,
2013-05-20 18:23:00,79.3,71.4,29.83,NW,315,1.7,-999.0,77,-99.99,,,0.00,Acu-Link.com,2013-05-20 22:23:00,
2013-05-20 18:39:00,78.3,71.2,29.83,West,270,1.1,-999.0,79,-99.99,,,0.00,Acu-Link.com,2013-05-20 22:39:00,
2013-05-20 18:54:00,77.2,70.9,29.83,West,270,0.0,-999.0,81,-99.99,,,0.00,Acu-Link.com,2013-05-20 22:54:00,
2013-05-20 19:09:00,77.0,71.1,29.82,West,270,0.0,-999.0,82,-99.99,,,0.00,Acu-Link.com,2013-05-20 23:09:00,
2013-05-20 19:25:00,76.5,70.6,29.82,West,270,0.0,-999.0,82,-99.99,,,0.00,Acu-Link.com,2013-05-20 23:25:00,
2013-05-20 19:40:00,75.9,70.0,29.81,West,270,0.0,-999.0,82,-99.99,,,0.00,Acu-Link.com,2013-05-20 23:40:00,
2013-05-20 19:55:00,75.2,70.0,29.82,West,270,0.0,-999.0,84,-99.99,,,0.00,Acu-Link.com,2013-05-20 23:55:00,
2013-05-20 20:10:00,74.7,70.2,29.82,ESE,112,0.0,-999.0,86,-99.99,,,0.00,Acu-Link.com,2013-05-21 00:10:00,
2013-05-20 20:26:00,74.1,69.6,29.83,West,270,0.0,-999.0,86,-99.99,,,0.00,Acu-Link.com,2013-05-21 00:26:00,
2013-05-20 20:41:00,73.2,69.4,29.83,NW,315,0.0,-999.0,88,-99.99,,,0.00,Acu-Link.com,2013-05-21 00:41:00,
2013-05-20 20:56:00,72.1,69.0,29.83,NW,315,0.0,-999.0,90,-99.99,,,0.00,Acu-Link.com,2013-05-21 00:56:00,
2013-05-20 21:11:00,71.2,68.8,29.83,NNW,337,0.0,-999.0,92,-99.99,,,0.00,Acu-Link.com,2013-05-21 01:11:00,
2013-05-20 21:27:00,70.9,69.1,29.83,North,0,0.0,-999.0,94,-99.99,,,0.00,Acu-Link.com,2013-05-21 01:27:00,
2013-05-20 21:42:00,70.7,69.2,29.83,NNE,22,0.0,-999.0,95,-99.99,,,0.00,Acu-Link.com,2013-05-21 01:42:00,
2013-05-20 21:57:00,70.2,68.7,29.84,NNE,22,0.0,-999.0,95,-99.99,,,0.00,Acu-Link.com,2013-05-21 01:57:00,
2013-05-20 22:13:00,69.8,68.9,29.84,NNE,22,0.0,-999.0,97,-99.99,,,0.00,Acu-Link.com,2013-05-21 02:13:00,
2013-05-20 22:28:00,69.4,68.5,29.84,NNE,22,1.1,-999.0,97,-99.99,,,0.00,Acu-Link.com,2013-05-21 02:28:00,
2013-05-20 22:43:00,69.1,68.2,29.84,NNE,22,0.0,-999.0,97,-99.99,,,0.00,Acu-Link.com,2013-05-21 02:43:00,
2013-05-20 22:59:00,68.7,67.8,29.84,NNE,22,0.0,-999.0,97,-99.99,,,0.00,Acu-Link.com,2013-05-21 02:59:00,
2013-05-20 23:14:00,68.4,67.8,29.84,NNE,22,0.0,-999.0,98,-99.99,,,0.00,Acu-Link.com,2013-05-21 03:14:00,
2013-05-20 23:29:00,68.2,67.6,29.84,NNE,22,0.0,-999.0,98,-99.99,,,0.00,Acu-Link.com,2013-05-21 03:29:00,
2013-05-20 23:44:00,68.0,67.4,29.83,East,90,1.1,-999.0,98,-99.99,,,0.00,Acu-Link.com,2013-05-21 03:44:00,